sensor_id;sensor_type;location;lat;lon;timestamp;P1;durP1;ratioP1;P2;durP2;ratioP2
7645;SDS011;3864;48.180;14.178;2023-07-24T00:02:03;8.20;;;4.63;;
7645;SDS011;3864;48.180;14.178;2023-07-24T00:04:32;6.85;;;4.47;;
7645;SDS011;3864;48.180;14.178;2023-07-24T00:06:59;8.90;;;4.70;;
7645;SDS011;3864;48.180;14.178;2023-07-24T00:09:27;7.20;;;4.07;;
7645;SDS011;3864;48.180;14.178;2023-07-24T00:11:54;6.90;;;4.20;;
7645;SDS011;3864;48.180;14.178;2023-07-24T00:14:21;8.48;;;4.50;;
7645;SDS011;3864;48.180;14.178;2023-07-24T00:16:49;7.15;;;4.68;;
7645;SDS011;3864;48.180;14.178;2023-07-24T00:19:16;7.15;;;4.20;;
7645;SDS011;3864;48.180;14.178;2023-07-24T00:21:45;6.97;;;4.43;;
7645;SDS011;3864;48.180;14.178;2023-07-24T00:24:12;7.00;;;4.75;;
7645;SDS011;3864;48.180;14.178;2023-07-24T00:26:39;6.82;;;4.65;;
7645;SDS011;3864;48.180;14.178;2023-07-24T00:29:06;7.88;;;4.70;;
7645;SDS011;3864;48.180;14.178;2023-07-24T00:31:34;7.97;;;4.78;;
7645;SDS011;3864;48.180;14.178;2023-07-24T00:34:01;8.63;;;4.43;;
7645;SDS011;3864;48.180;14.178;2023-07-24T00:36:28;6.82;;;4.30;;
7645;SDS011;3864;48.180;14.178;2023-07-24T00:38:57;5.80;;;4.32;;
7645;SDS011;3864;48.180;14.178;2023-07-24T00:41:24;7.95;;;4.53;;
7645;SDS011;3864;48.180;14.178;2023-07-24T00:43:52;7.63;;;4.45;;
7645;SDS011;3864;48.180;14.178;2023-07-24T00:46:19;7.50;;;4.35;;
7645;SDS011;3864;48.180;14.178;2023-07-24T00:48:46;7.50;;;5.40;;
7645;SDS011;3864;48.180;14.178;2023-07-24T00:51:14;8.07;;;4.57;;
7645;SDS011;3864;48.180;14.178;2023-07-24T00:53:41;8.45;;;4.65;;
7645;SDS011;3864;48.180;14.178;2023-07-24T00:56:10;8.07;;;4.82;;
7645;SDS011;3864;48.180;14.178;2023-07-24T00:58:38;9.30;;;4.70;;
7645;SDS011;3864;48.180;14.178;2023-07-24T01:01:05;7.07;;;4.22;;
7645;SDS011;3864;48.180;14.178;2023-07-24T01:03:33;8.13;;;4.80;;
7645;SDS011;3864;48.180;14.178;2023-07-24T01:06:02;7.47;;;4.50;;
7645;SDS011;3864;48.180;14.178;2023-07-24T01:08:29;6.88;;;4.70;;
7645;SDS011;3864;48.180;14.178;2023-07-24T01:10:57;7.68;;;4.38;;
7645;SDS011;3864;48.180;14.178;2023-07-24T01:13:36;7.57;;;4.80;;
7645;SDS011;3864;48.180;14.178;2023-07-24T01:16:08;7.63;;;4.57;;
7645;SDS011;3864;48.180;14.178;2023-07-24T01:18:39;7.10;;;4.57;;
7645;SDS011;3864;48.180;14.178;2023-07-24T01:21:09;8.20;;;4.75;;
7645;SDS011;3864;48.180;14.178;2023-07-24T01:23:44;6.70;;;4.35;;
7645;SDS011;3864;48.180;14.178;2023-07-24T01:26:23;6.72;;;4.78;;
7645;SDS011;3864;48.180;14.178;2023-07-24T01:28:51;7.70;;;5.03;;
7645;SDS011;3864;48.180;14.178;2023-07-24T01:31:18;6.90;;;4.40;;
7645;SDS011;3864;48.180;14.178;2023-07-24T01:33:45;8.60;;;4.78;;
7645;SDS011;3864;48.180;14.178;2023-07-24T01:36:13;9.52;;;4.82;;
7645;SDS011;3864;48.180;14.178;2023-07-24T01:38:41;7.95;;;4.60;;
7645;SDS011;3864;48.180;14.178;2023-07-24T01:41:09;10.30;;;4.93;;
7645;SDS011;3864;48.180;14.178;2023-07-24T01:43:38;6.72;;;4.30;;
7645;SDS011;3864;48.180;14.178;2023-07-24T01:46:06;6.93;;;5.03;;
7645;SDS011;3864;48.180;14.178;2023-07-24T01:48:33;8.20;;;4.90;;
7645;SDS011;3864;48.180;14.178;2023-07-24T01:51:00;9.68;;;4.40;;
7645;SDS011;3864;48.180;14.178;2023-07-24T01:53:28;8.60;;;5.07;;
7645;SDS011;3864;48.180;14.178;2023-07-24T01:55:55;6.38;;;4.75;;
7645;SDS011;3864;48.180;14.178;2023-07-24T01:58:22;10.25;;;4.90;;
7645;SDS011;3864;48.180;14.178;2023-07-24T02:00:54;7.57;;;4.88;;
7645;SDS011;3864;48.180;14.178;2023-07-24T02:03:21;7.90;;;5.20;;
7645;SDS011;3864;48.180;14.178;2023-07-24T02:05:49;6.97;;;5.18;;
7645;SDS011;3864;48.180;14.178;2023-07-24T02:08:17;8.43;;;4.85;;
7645;SDS011;3864;48.180;14.178;2023-07-24T02:10:47;8.80;;;5.07;;
7645;SDS011;3864;48.180;14.178;2023-07-24T02:13:15;8.27;;;4.95;;
7645;SDS011;3864;48.180;14.178;2023-07-24T02:15:42;7.93;;;4.72;;
7645;SDS011;3864;48.180;14.178;2023-07-24T02:18:11;6.57;;;4.20;;
7645;SDS011;3864;48.180;14.178;2023-07-24T02:20:38;7.55;;;4.65;;
7645;SDS011;3864;48.180;14.178;2023-07-24T02:23:06;7.22;;;5.20;;
7645;SDS011;3864;48.180;14.178;2023-07-24T02:25:35;8.73;;;5.57;;
7645;SDS011;3864;48.180;14.178;2023-07-24T02:28:02;9.68;;;5.50;;
7645;SDS011;3864;48.180;14.178;2023-07-24T02:30:30;9.02;;;5.68;;
7645;SDS011;3864;48.180;14.178;2023-07-24T02:32:57;11.05;;;5.60;;
7645;SDS011;3864;48.180;14.178;2023-07-24T02:35:26;8.65;;;4.43;;
7645;SDS011;3864;48.180;14.178;2023-07-24T02:37:53;8.18;;;5.20;;
7645;SDS011;3864;48.180;14.178;2023-07-24T02:40:20;10.07;;;5.95;;
7645;SDS011;3864;48.180;14.178;2023-07-24T02:42:47;7.40;;;5.30;;
7645;SDS011;3864;48.180;14.178;2023-07-24T02:45:15;10.55;;;5.20;;
7645;SDS011;3864;48.180;14.178;2023-07-24T02:47:42;10.13;;;5.43;;
7645;SDS011;3864;48.180;14.178;2023-07-24T02:50:09;9.15;;;5.13;;
7645;SDS011;3864;48.180;14.178;2023-07-24T02:52:38;19.60;;;5.72;;
7645;SDS011;3864;48.180;14.178;2023-07-24T02:55:06;7.55;;;5.28;;
7645;SDS011;3864;48.180;14.178;2023-07-24T02:57:33;8.57;;;4.97;;
7645;SDS011;3864;48.180;14.178;2023-07-24T03:00:01;9.75;;;5.32;;
7645;SDS011;3864;48.180;14.178;2023-07-24T03:02:29;7.82;;;4.88;;
7645;SDS011;3864;48.180;14.178;2023-07-24T03:04:56;7.40;;;5.22;;
7645;SDS011;3864;48.180;14.178;2023-07-24T03:07:23;9.82;;;5.28;;
7645;SDS011;3864;48.180;14.178;2023-07-24T03:09:52;8.75;;;5.43;;
7645;SDS011;3864;48.180;14.178;2023-07-24T03:12:20;7.75;;;5.38;;
7645;SDS011;3864;48.180;14.178;2023-07-24T03:14:47;9.40;;;5.93;;
7645;SDS011;3864;48.180;14.178;2023-07-24T03:17:14;8.82;;;5.60;;
7645;SDS011;3864;48.180;14.178;2023-07-24T03:19:42;8.82;;;5.53;;
7645;SDS011;3864;48.180;14.178;2023-07-24T03:22:09;8.75;;;5.35;;
7645;SDS011;3864;48.180;14.178;2023-07-24T03:24:36;8.98;;;5.63;;
7645;SDS011;3864;48.180;14.178;2023-07-24T03:27:05;8.82;;;5.72;;
7645;SDS011;3864;48.180;14.178;2023-07-24T03:29:33;9.73;;;6.00;;
7645;SDS011;3864;48.180;14.178;2023-07-24T03:32:02;10.30;;;6.30;;
7645;SDS011;3864;48.180;14.178;2023-07-24T03:34:30;8.38;;;5.15;;
7645;SDS011;3864;48.180;14.178;2023-07-24T03:36:57;10.88;;;5.93;;
7645;SDS011;3864;48.180;14.178;2023-07-24T03:39:24;8.93;;;6.10;;
7645;SDS011;3864;48.180;14.178;2023-07-24T03:41:52;9.73;;;6.15;;
7645;SDS011;3864;48.180;14.178;2023-07-24T03:44:20;9.52;;;5.60;;
7645;SDS011;3864;48.180;14.178;2023-07-24T03:46:48;9.50;;;5.82;;
7645;SDS011;3864;48.180;14.178;2023-07-24T03:49:15;9.60;;;6.00;;
7645;SDS011;3864;48.180;14.178;2023-07-24T03:51:42;9.50;;;6.07;;
7645;SDS011;3864;48.180;14.178;2023-07-24T03:54:10;7.75;;;5.65;;
7645;SDS011;3864;48.180;14.178;2023-07-24T03:56:37;8.40;;;5.60;;
7645;SDS011;3864;48.180;14.178;2023-07-24T03:59:05;7.28;;;5.55;;
7645;SDS011;3864;48.180;14.178;2023-07-24T04:01:33;11.15;;;6.47;;
7645;SDS011;3864;48.180;14.178;2023-07-24T04:04:01;8.82;;;5.45;;
7645;SDS011;3864;48.180;14.178;2023-07-24T04:06:28;8.68;;;5.75;;
7645;SDS011;3864;48.180;14.178;2023-07-24T04:08:55;8.23;;;5.50;;
7645;SDS011;3864;48.180;14.178;2023-07-24T04:11:23;10.63;;;5.95;;
7645;SDS011;3864;48.180;14.178;2023-07-24T04:13:53;9.40;;;6.07;;
7645;SDS011;3864;48.180;14.178;2023-07-24T04:16:20;8.00;;;5.40;;
7645;SDS011;3864;48.180;14.178;2023-07-24T04:18:49;8.52;;;5.70;;
7645;SDS011;3864;48.180;14.178;2023-07-24T04:21:17;9.25;;;5.90;;
7645;SDS011;3864;48.180;14.178;2023-07-24T04:23:44;8.73;;;5.63;;
7645;SDS011;3864;48.180;14.178;2023-07-24T04:26:11;8.93;;;6.43;;
7645;SDS011;3864;48.180;14.178;2023-07-24T04:28:39;8.18;;;5.65;;
7645;SDS011;3864;48.180;14.178;2023-07-24T04:31:06;8.25;;;5.28;;
7645;SDS011;3864;48.180;14.178;2023-07-24T04:33:33;10.10;;;6.15;;
7645;SDS011;3864;48.180;14.178;2023-07-24T04:36:02;8.98;;;6.07;;
7645;SDS011;3864;48.180;14.178;2023-07-24T04:38:30;9.10;;;5.70;;
7645;SDS011;3864;48.180;14.178;2023-07-24T04:40:59;8.63;;;5.43;;
7645;SDS011;3864;48.180;14.178;2023-07-24T04:43:27;10.23;;;5.97;;
7645;SDS011;3864;48.180;14.178;2023-07-24T04:45:54;8.07;;;5.82;;
7645;SDS011;3864;48.180;14.178;2023-07-24T04:48:21;9.43;;;5.90;;
7645;SDS011;3864;48.180;14.178;2023-07-24T04:50:52;9.80;;;5.97;;
7645;SDS011;3864;48.180;14.178;2023-07-24T04:53:22;9.35;;;5.85;;
7645;SDS011;3864;48.180;14.178;2023-07-24T04:55:49;8.90;;;5.75;;
7645;SDS011;3864;48.180;14.178;2023-07-24T04:58:16;8.35;;;5.88;;
7645;SDS011;3864;48.180;14.178;2023-07-24T05:00:44;8.70;;;5.60;;
7645;SDS011;3864;48.180;14.178;2023-07-24T05:03:11;10.30;;;5.78;;
7645;SDS011;3864;48.180;14.178;2023-07-24T05:05:41;12.52;;;7.97;;
7645;SDS011;3864;48.180;14.178;2023-07-24T05:08:09;9.50;;;5.97;;
7645;SDS011;3864;48.180;14.178;2023-07-24T05:10:38;7.60;;;5.55;;
7645;SDS011;3864;48.180;14.178;2023-07-24T05:13:05;8.45;;;6.00;;
7645;SDS011;3864;48.180;14.178;2023-07-24T05:15:32;8.73;;;5.82;;
7645;SDS011;3864;48.180;14.178;2023-07-24T05:18:00;9.68;;;5.50;;
7645;SDS011;3864;48.180;14.178;2023-07-24T05:20:27;9.90;;;5.40;;
7645;SDS011;3864;48.180;14.178;2023-07-24T05:22:54;10.57;;;5.57;;
7645;SDS011;3864;48.180;14.178;2023-07-24T05:25:21;9.15;;;5.32;;
7645;SDS011;3864;48.180;14.178;2023-07-24T05:27:50;10.52;;;5.38;;
7645;SDS011;3864;48.180;14.178;2023-07-24T05:30:18;10.57;;;6.55;;
7645;SDS011;3864;48.180;14.178;2023-07-24T05:32:45;9.82;;;6.53;;
7645;SDS011;3864;48.180;14.178;2023-07-24T05:35:13;11.07;;;5.72;;
7645;SDS011;3864;48.180;14.178;2023-07-24T05:37:40;11.32;;;5.97;;
7645;SDS011;3864;48.180;14.178;2023-07-24T05:40:08;10.23;;;5.88;;
7645;SDS011;3864;48.180;14.178;2023-07-24T05:42:35;10.00;;;5.90;;
7645;SDS011;3864;48.180;14.178;2023-07-24T05:45:10;10.38;;;6.05;;
7645;SDS011;3864;48.180;14.178;2023-07-24T05:47:37;12.50;;;6.07;;
7645;SDS011;3864;48.180;14.178;2023-07-24T05:50:05;9.05;;;5.85;;
7645;SDS011;3864;48.180;14.178;2023-07-24T05:52:33;9.52;;;6.25;;
7645;SDS011;3864;48.180;14.178;2023-07-24T05:55:00;10.27;;;7.05;;
7645;SDS011;3864;48.180;14.178;2023-07-24T05:57:28;13.13;;;6.30;;
7645;SDS011;3864;48.180;14.178;2023-07-24T05:59:55;10.98;;;6.82;;
7645;SDS011;3864;48.180;14.178;2023-07-24T06:02:24;11.25;;;6.88;;
7645;SDS011;3864;48.180;14.178;2023-07-24T06:04:52;12.32;;;6.13;;
7645;SDS011;3864;48.180;14.178;2023-07-24T06:07:21;9.27;;;6.03;;
7645;SDS011;3864;48.180;14.178;2023-07-24T06:09:49;11.70;;;6.18;;
7645;SDS011;3864;48.180;14.178;2023-07-24T06:12:16;11.63;;;7.60;;
7645;SDS011;3864;48.180;14.178;2023-07-24T06:14:43;10.80;;;6.03;;
7645;SDS011;3864;48.180;14.178;2023-07-24T06:17:11;12.15;;;7.20;;
7645;SDS011;3864;48.180;14.178;2023-07-24T06:19:39;9.48;;;5.95;;
7645;SDS011;3864;48.180;14.178;2023-07-24T06:22:07;10.27;;;6.05;;
7645;SDS011;3864;48.180;14.178;2023-07-24T06:24:34;11.50;;;6.07;;
7645;SDS011;3864;48.180;14.178;2023-07-24T06:27:01;9.07;;;5.63;;
7645;SDS011;3864;48.180;14.178;2023-07-24T06:29:31;10.23;;;6.15;;
7645;SDS011;3864;48.180;14.178;2023-07-24T06:31:58;12.32;;;6.45;;
7645;SDS011;3864;48.180;14.178;2023-07-24T06:34:26;9.40;;;6.13;;
7645;SDS011;3864;48.180;14.178;2023-07-24T06:36:54;12.40;;;6.68;;
7645;SDS011;3864;48.180;14.178;2023-07-24T06:39:22;9.40;;;6.63;;
7645;SDS011;3864;48.180;14.178;2023-07-24T06:41:50;11.38;;;6.20;;
7645;SDS011;3864;48.180;14.178;2023-07-24T06:44:18;11.30;;;6.05;;
7645;SDS011;3864;48.180;14.178;2023-07-24T06:46:45;13.38;;;5.78;;
7645;SDS011;3864;48.180;14.178;2023-07-24T06:49:13;11.50;;;5.63;;
7645;SDS011;3864;48.180;14.178;2023-07-24T06:51:40;8.73;;;5.95;;
7645;SDS011;3864;48.180;14.178;2023-07-24T06:54:11;10.02;;;6.03;;
7645;SDS011;3864;48.180;14.178;2023-07-24T06:56:38;10.25;;;6.18;;
7645;SDS011;3864;48.180;14.178;2023-07-24T06:59:05;7.80;;;5.63;;
7645;SDS011;3864;48.180;14.178;2023-07-24T07:01:33;9.48;;;5.45;;
7645;SDS011;3864;48.180;14.178;2023-07-24T07:04:00;10.13;;;6.82;;
7645;SDS011;3864;48.180;14.178;2023-07-24T07:06:27;9.40;;;6.35;;
7645;SDS011;3864;48.180;14.178;2023-07-24T07:08:54;11.45;;;6.55;;
7645;SDS011;3864;48.180;14.178;2023-07-24T07:11:23;11.55;;;5.95;;
7645;SDS011;3864;48.180;14.178;2023-07-24T07:13:50;10.10;;;5.55;;
7645;SDS011;3864;48.180;14.178;2023-07-24T07:16:18;8.57;;;5.72;;
7645;SDS011;3864;48.180;14.178;2023-07-24T07:18:45;11.13;;;6.07;;
7645;SDS011;3864;48.180;14.178;2023-07-24T07:21:12;8.77;;;5.47;;
7645;SDS011;3864;48.180;14.178;2023-07-24T07:23:39;8.45;;;5.82;;
7645;SDS011;3864;48.180;14.178;2023-07-24T07:26:07;8.93;;;5.93;;
7645;SDS011;3864;48.180;14.178;2023-07-24T07:28:36;12.57;;;6.13;;
7645;SDS011;3864;48.180;14.178;2023-07-24T07:31:05;9.50;;;6.07;;
7645;SDS011;3864;48.180;14.178;2023-07-24T07:33:33;8.77;;;6.30;;
7645;SDS011;3864;48.180;14.178;2023-07-24T07:36:00;8.00;;;5.50;;
7645;SDS011;3864;48.180;14.178;2023-07-24T07:38:28;8.93;;;5.55;;
7645;SDS011;3864;48.180;14.178;2023-07-24T07:40:56;10.13;;;6.07;;
7645;SDS011;3864;48.180;14.178;2023-07-24T07:43:23;8.73;;;6.05;;
7645;SDS011;3864;48.180;14.178;2023-07-24T07:45:52;9.63;;;5.75;;
7645;SDS011;3864;48.180;14.178;2023-07-24T07:48:21;10.27;;;6.35;;
7645;SDS011;3864;48.180;14.178;2023-07-24T07:50:50;9.93;;;5.95;;
7645;SDS011;3864;48.180;14.178;2023-07-24T07:53:17;8.23;;;5.47;;
7645;SDS011;3864;48.180;14.178;2023-07-24T07:55:45;7.80;;;5.35;;
7645;SDS011;3864;48.180;14.178;2023-07-24T07:58:12;8.57;;;6.20;;
7645;SDS011;3864;48.180;14.178;2023-07-24T08:00:39;10.95;;;6.25;;
7645;SDS011;3864;48.180;14.178;2023-07-24T08:03:08;8.00;;;5.55;;
7645;SDS011;3864;48.180;14.178;2023-07-24T08:05:35;7.20;;;5.40;;
7645;SDS011;3864;48.180;14.178;2023-07-24T08:08:03;9.48;;;6.07;;
7645;SDS011;3864;48.180;14.178;2023-07-24T08:10:31;8.60;;;5.53;;
7645;SDS011;3864;48.180;14.178;2023-07-24T08:12:58;13.00;;;6.20;;
7645;SDS011;3864;48.180;14.178;2023-07-24T08:15:25;8.93;;;6.28;;
7645;SDS011;3864;48.180;14.178;2023-07-24T08:17:53;10.48;;;6.50;;
7645;SDS011;3864;48.180;14.178;2023-07-24T08:20:22;8.32;;;5.60;;
7645;SDS011;3864;48.180;14.178;2023-07-24T08:22:49;6.88;;;4.88;;
7645;SDS011;3864;48.180;14.178;2023-07-24T08:25:17;9.15;;;6.00;;
7645;SDS011;3864;48.180;14.178;2023-07-24T08:27:44;8.27;;;5.78;;
7645;SDS011;3864;48.180;14.178;2023-07-24T08:30:13;7.85;;;5.97;;
7645;SDS011;3864;48.180;14.178;2023-07-24T08:32:41;7.60;;;5.10;;
7645;SDS011;3864;48.180;14.178;2023-07-24T08:35:08;8.90;;;5.55;;
7645;SDS011;3864;48.180;14.178;2023-07-24T08:37:37;9.30;;;5.82;;
7645;SDS011;3864;48.180;14.178;2023-07-24T08:40:09;8.95;;;5.53;;
7645;SDS011;3864;48.180;14.178;2023-07-24T08:42:38;8.82;;;5.60;;
7645;SDS011;3864;48.180;14.178;2023-07-24T08:45:08;9.88;;;5.78;;
7645;SDS011;3864;48.180;14.178;2023-07-24T08:47:40;9.93;;;5.75;;
7645;SDS011;3864;48.180;14.178;2023-07-24T08:50:09;8.27;;;5.80;;
7645;SDS011;3864;48.180;14.178;2023-07-24T08:52:39;7.72;;;5.65;;
7645;SDS011;3864;48.180;14.178;2023-07-24T08:55:07;8.63;;;5.35;;
7645;SDS011;3864;48.180;14.178;2023-07-24T08:57:36;8.75;;;5.88;;
7645;SDS011;3864;48.180;14.178;2023-07-24T09:00:04;8.30;;;5.70;;
7645;SDS011;3864;48.180;14.178;2023-07-24T09:02:32;7.32;;;5.07;;
7645;SDS011;3864;48.180;14.178;2023-07-24T09:05:01;8.35;;;5.88;;
7645;SDS011;3864;48.180;14.178;2023-07-24T09:07:29;7.70;;;5.18;;
7645;SDS011;3864;48.180;14.178;2023-07-24T09:09:58;8.05;;;5.85;;
7645;SDS011;3864;48.180;14.178;2023-07-24T09:12:25;8.18;;;5.68;;
7645;SDS011;3864;48.180;14.178;2023-07-24T09:15:02;8.25;;;6.05;;
7645;SDS011;3864;48.180;14.178;2023-07-24T09:17:30;7.90;;;5.78;;
7645;SDS011;3864;48.180;14.178;2023-07-24T09:19:58;7.63;;;5.30;;
7645;SDS011;3864;48.180;14.178;2023-07-24T09:22:26;8.77;;;5.95;;
7645;SDS011;3864;48.180;14.178;2023-07-24T09:24:54;8.10;;;5.90;;
7645;SDS011;3864;48.180;14.178;2023-07-24T09:27:25;7.57;;;5.60;;
7645;SDS011;3864;48.180;14.178;2023-07-24T09:29:54;8.57;;;5.90;;
7645;SDS011;3864;48.180;14.178;2023-07-24T09:32:22;8.15;;;5.18;;
7645;SDS011;3864;48.180;14.178;2023-07-24T09:34:50;9.32;;;6.50;;
7645;SDS011;3864;48.180;14.178;2023-07-24T09:37:22;13.25;;;6.20;;
7645;SDS011;3864;48.180;14.178;2023-07-24T09:39:51;9.00;;;6.20;;
7645;SDS011;3864;48.180;14.178;2023-07-24T09:42:28;10.05;;;7.03;;
7645;SDS011;3864;48.180;14.178;2023-07-24T09:45:00;9.88;;;6.53;;
7645;SDS011;3864;48.180;14.178;2023-07-24T09:47:28;12.05;;;6.10;;
7645;SDS011;3864;48.180;14.178;2023-07-24T09:49:56;10.18;;;5.63;;
7645;SDS011;3864;48.180;14.178;2023-07-24T09:52:24;9.02;;;6.03;;
7645;SDS011;3864;48.180;14.178;2023-07-24T09:54:55;12.15;;;6.57;;
7645;SDS011;3864;48.180;14.178;2023-07-24T09:57:31;10.90;;;6.93;;
7645;SDS011;3864;48.180;14.178;2023-07-24T10:00:01;10.50;;;6.07;;
7645;SDS011;3864;48.180;14.178;2023-07-24T10:02:30;10.23;;;7.00;;
7645;SDS011;3864;48.180;14.178;2023-07-24T10:04:57;10.15;;;6.57;;
7645;SDS011;3864;48.180;14.178;2023-07-24T10:07:25;10.43;;;7.32;;
7645;SDS011;3864;48.180;14.178;2023-07-24T10:09:53;9.57;;;6.03;;
7645;SDS011;3864;48.180;14.178;2023-07-24T10:12:22;10.48;;;6.57;;
7645;SDS011;3864;48.180;14.178;2023-07-24T10:14:54;10.23;;;6.13;;
7645;SDS011;3864;48.180;14.178;2023-07-24T10:17:34;11.70;;;6.65;;
7645;SDS011;3864;48.180;14.178;2023-07-24T10:20:03;10.07;;;6.32;;
7645;SDS011;3864;48.180;14.178;2023-07-24T10:22:31;9.85;;;6.57;;
7645;SDS011;3864;48.180;14.178;2023-07-24T10:24:59;9.98;;;6.78;;
7645;SDS011;3864;48.180;14.178;2023-07-24T10:27:26;9.98;;;6.57;;
7645;SDS011;3864;48.180;14.178;2023-07-24T10:30:00;9.20;;;6.70;;
7645;SDS011;3864;48.180;14.178;2023-07-24T10:32:28;10.48;;;6.05;;
7645;SDS011;3864;48.180;14.178;2023-07-24T10:34:56;10.43;;;6.88;;
7645;SDS011;3864;48.180;14.178;2023-07-24T10:37:31;8.60;;;6.25;;
7645;SDS011;3864;48.180;14.178;2023-07-24T10:40:00;8.88;;;6.18;;
7645;SDS011;3864;48.180;14.178;2023-07-24T10:42:28;9.93;;;6.72;;
7645;SDS011;3864;48.180;14.178;2023-07-24T10:45:03;9.20;;;6.00;;
7645;SDS011;3864;48.180;14.178;2023-07-24T10:47:32;8.63;;;6.07;;
7645;SDS011;3864;48.180;14.178;2023-07-24T10:49:59;10.35;;;6.00;;
7645;SDS011;3864;48.180;14.178;2023-07-24T10:52:28;9.57;;;6.03;;
7645;SDS011;3864;48.180;14.178;2023-07-24T10:54:56;9.10;;;6.40;;
7645;SDS011;3864;48.180;14.178;2023-07-24T10:57:26;9.13;;;6.47;;
7645;SDS011;3864;48.180;14.178;2023-07-24T10:59:53;10.40;;;6.50;;
7645;SDS011;3864;48.180;14.178;2023-07-24T11:02:22;11.68;;;7.18;;
7645;SDS011;3864;48.180;14.178;2023-07-24T11:04:50;12.10;;;6.45;;
7645;SDS011;3864;48.180;14.178;2023-07-24T11:07:22;9.05;;;5.53;;
7645;SDS011;3864;48.180;14.178;2023-07-24T11:09:50;9.48;;;6.25;;
7645;SDS011;3864;48.180;14.178;2023-07-24T11:12:18;9.77;;;6.13;;
7645;SDS011;3864;48.180;14.178;2023-07-24T11:14:51;9.52;;;6.43;;
7645;SDS011;3864;48.180;14.178;2023-07-24T11:17:20;10.07;;;6.40;;
7645;SDS011;3864;48.180;14.178;2023-07-24T11:19:49;9.00;;;5.93;;
7645;SDS011;3864;48.180;14.178;2023-07-24T11:22:21;8.98;;;6.28;;
7645;SDS011;3864;48.180;14.178;2023-07-24T11:24:48;9.00;;;6.45;;
7645;SDS011;3864;48.180;14.178;2023-07-24T11:27:16;14.48;;;6.97;;
7645;SDS011;3864;48.180;14.178;2023-07-24T11:29:47;9.25;;;6.90;;
7645;SDS011;3864;48.180;14.178;2023-07-24T11:32:17;10.93;;;6.25;;
7645;SDS011;3864;48.180;14.178;2023-07-24T11:34:45;10.38;;;6.20;;
7645;SDS011;3864;48.180;14.178;2023-07-24T11:37:15;9.68;;;6.28;;
7645;SDS011;3864;48.180;14.178;2023-07-24T11:39:43;10.05;;;6.45;;
7645;SDS011;3864;48.180;14.178;2023-07-24T11:44:50;8.80;;;6.03;;
7645;SDS011;3864;48.180;14.178;2023-07-24T11:47:18;9.27;;;6.25;;
7645;SDS011;3864;48.180;14.178;2023-07-24T11:49:55;9.80;;;6.80;;
7645;SDS011;3864;48.180;14.178;2023-07-24T11:52:25;9.45;;;6.13;;
7645;SDS011;3864;48.180;14.178;2023-07-24T11:54:56;8.32;;;5.45;;
7645;SDS011;3864;48.180;14.178;2023-07-24T11:57:26;7.95;;;6.40;;
7645;SDS011;3864;48.180;14.178;2023-07-24T11:59:55;12.43;;;6.20;;
7645;SDS011;3864;48.180;14.178;2023-07-24T12:02:25;10.48;;;6.00;;
7645;SDS011;3864;48.180;14.178;2023-07-24T12:04:54;9.00;;;6.05;;
7645;SDS011;3864;48.180;14.178;2023-07-24T12:07:27;8.68;;;6.30;;
7645;SDS011;3864;48.180;14.178;2023-07-24T12:09:57;8.55;;;6.30;;
7645;SDS011;3864;48.180;14.178;2023-07-24T12:12:24;8.65;;;5.80;;
7645;SDS011;3864;48.180;14.178;2023-07-24T12:14:52;10.65;;;6.53;;
7645;SDS011;3864;48.180;14.178;2023-07-24T12:17:19;9.75;;;5.63;;
7645;SDS011;3864;48.180;14.178;2023-07-24T12:19:46;9.20;;;5.47;;
7645;SDS011;3864;48.180;14.178;2023-07-24T12:22:14;9.63;;;5.60;;
7645;SDS011;3864;48.180;14.178;2023-07-24T12:24:45;7.93;;;5.50;;
7645;SDS011;3864;48.180;14.178;2023-07-24T12:27:12;9.10;;;5.72;;
7645;SDS011;3864;48.180;14.178;2023-07-24T12:29:40;10.98;;;5.32;;
7645;SDS011;3864;48.180;14.178;2023-07-24T12:32:07;7.95;;;5.30;;
7645;SDS011;3864;48.180;14.178;2023-07-24T12:34:35;7.85;;;5.25;;
7645;SDS011;3864;48.180;14.178;2023-07-24T12:37:02;11.15;;;5.45;;
7645;SDS011;3864;48.180;14.178;2023-07-24T12:39:30;7.97;;;4.88;;
7645;SDS011;3864;48.180;14.178;2023-07-24T12:41:59;7.47;;;5.15;;
7645;SDS011;3864;48.180;14.178;2023-07-24T12:44:27;6.30;;;4.90;;
7645;SDS011;3864;48.180;14.178;2023-07-24T12:46:54;7.78;;;4.90;;
7645;SDS011;3864;48.180;14.178;2023-07-24T12:49:24;8.40;;;4.95;;
7645;SDS011;3864;48.180;14.178;2023-07-24T12:51:51;7.40;;;5.43;;
7645;SDS011;3864;48.180;14.178;2023-07-24T12:54:19;8.95;;;5.93;;
7645;SDS011;3864;48.180;14.178;2023-07-24T12:56:47;7.57;;;5.15;;
7645;SDS011;3864;48.180;14.178;2023-07-24T12:59:16;8.15;;;4.90;;
7645;SDS011;3864;48.180;14.178;2023-07-24T13:01:44;7.85;;;5.35;;
7645;SDS011;3864;48.180;14.178;2023-07-24T13:04:12;7.43;;;4.78;;
7645;SDS011;3864;48.180;14.178;2023-07-24T13:06:39;6.28;;;4.88;;
7645;SDS011;3864;48.180;14.178;2023-07-24T13:09:06;7.43;;;5.00;;
7645;SDS011;3864;48.180;14.178;2023-07-24T13:11:34;7.00;;;5.10;;
7645;SDS011;3864;48.180;14.178;2023-07-24T13:14:01;8.00;;;5.32;;
7645;SDS011;3864;48.180;14.178;2023-07-24T13:16:31;8.73;;;5.63;;
7645;SDS011;3864;48.180;14.178;2023-07-24T13:18:58;7.30;;;5.10;;
7645;SDS011;3864;48.180;14.178;2023-07-24T13:21:25;7.95;;;5.05;;
7645;SDS011;3864;48.180;14.178;2023-07-24T13:23:53;7.95;;;5.45;;
7645;SDS011;3864;48.180;14.178;2023-07-24T13:26:21;9.57;;;5.32;;
7645;SDS011;3864;48.180;14.178;2023-07-24T13:28:48;9.27;;;5.65;;
7645;SDS011;3864;48.180;14.178;2023-07-24T13:31:16;8.75;;;5.10;;
7645;SDS011;3864;48.180;14.178;2023-07-24T13:33:46;7.85;;;5.03;;
7645;SDS011;3864;48.180;14.178;2023-07-24T13:36:13;9.40;;;5.13;;
7645;SDS011;3864;48.180;14.178;2023-07-24T13:38:44;8.85;;;6.00;;
7645;SDS011;3864;48.180;14.178;2023-07-24T13:41:11;7.55;;;4.90;;
7645;SDS011;3864;48.180;14.178;2023-07-24T13:43:38;8.10;;;5.60;;
7645;SDS011;3864;48.180;14.178;2023-07-24T13:46:06;9.52;;;5.53;;
7645;SDS011;3864;48.180;14.178;2023-07-24T13:48:34;8.73;;;4.82;;
7645;SDS011;3864;48.180;14.178;2023-07-24T13:51:03;8.73;;;5.65;;
7645;SDS011;3864;48.180;14.178;2023-07-24T13:53:30;8.40;;;5.60;;
7645;SDS011;3864;48.180;14.178;2023-07-24T13:55:57;8.25;;;5.03;;
7645;SDS011;3864;48.180;14.178;2023-07-24T14:03:40;9.15;;;5.38;;
7645;SDS011;3864;48.180;14.178;2023-07-24T14:06:08;7.72;;;5.18;;
7645;SDS011;3864;48.180;14.178;2023-07-24T14:11:11;7.22;;;4.88;;
7645;SDS011;3864;48.180;14.178;2023-07-24T14:13:38;9.57;;;5.55;;
7645;SDS011;3864;48.180;14.178;2023-07-24T14:16:05;8.15;;;5.55;;
7645;SDS011;3864;48.180;14.178;2023-07-24T14:18:32;8.23;;;5.45;;
7645;SDS011;3864;48.180;14.178;2023-07-24T14:21:01;8.93;;;5.72;;
7645;SDS011;3864;48.180;14.178;2023-07-24T14:23:29;9.02;;;6.10;;
7645;SDS011;3864;48.180;14.178;2023-07-24T14:25:56;8.43;;;5.45;;
7645;SDS011;3864;48.180;14.178;2023-07-24T14:28:24;8.38;;;5.00;;
7645;SDS011;3864;48.180;14.178;2023-07-24T14:30:51;8.45;;;5.75;;
7645;SDS011;3864;48.180;14.178;2023-07-24T14:33:18;8.75;;;5.70;;
7645;SDS011;3864;48.180;14.178;2023-07-24T14:35:47;9.25;;;5.20;;
7645;SDS011;3864;48.180;14.178;2023-07-24T14:38:17;10.45;;;6.40;;
7645;SDS011;3864;48.180;14.178;2023-07-24T14:40:44;10.85;;;5.40;;
7645;SDS011;3864;48.180;14.178;2023-07-24T14:43:26;10.60;;;6.05;;
7645;SDS011;3864;48.180;14.178;2023-07-24T14:45:53;10.15;;;5.75;;
7645;SDS011;3864;48.180;14.178;2023-07-24T14:48:21;10.55;;;6.45;;
7645;SDS011;3864;48.180;14.178;2023-07-24T14:50:48;8.77;;;5.85;;
7645;SDS011;3864;48.180;14.178;2023-07-24T14:53:17;10.18;;;5.82;;
7645;SDS011;3864;48.180;14.178;2023-07-24T14:55:44;8.95;;;5.75;;
7645;SDS011;3864;48.180;14.178;2023-07-24T14:58:12;8.15;;;5.47;;
7645;SDS011;3864;48.180;14.178;2023-07-24T15:00:47;8.73;;;5.43;;
7645;SDS011;3864;48.180;14.178;2023-07-24T15:03:17;8.95;;;4.95;;
7645;SDS011;3864;48.180;14.178;2023-07-24T15:05:45;8.15;;;5.30;;
7645;SDS011;3864;48.180;14.178;2023-07-24T15:11:22;8.52;;;5.40;;
7645;SDS011;3864;48.180;14.178;2023-07-24T15:13:49;11.50;;;6.10;;
7645;SDS011;3864;48.180;14.178;2023-07-24T15:16:17;8.73;;;5.72;;
7645;SDS011;3864;48.180;14.178;2023-07-24T15:18:44;7.53;;;5.15;;